createdAt,value
2023-03-05T00:01:38.196Z,92.28
2023-03-05T00:04:08.162Z,92.28
2023-03-05T00:06:34.639Z,92.05
2023-03-05T00:09:01.975Z,92.29
2023-03-05T00:11:30.551Z,92.11
2023-03-05T00:13:58.050Z,92.38
2023-03-05T00:16:26.853Z,92.39
2023-03-05T00:18:54.875Z,92.05
2023-03-05T00:21:27.515Z,91.96
2023-03-05T00:23:55.229Z,92.24
2023-03-05T00:26:24.598Z,92.20
2023-03-05T00:28:52.451Z,92.35
2023-03-05T00:31:22.612Z,92.02
2023-03-05T00:33:54.395Z,92.43
2023-03-05T00:36:21.274Z,92.56
2023-03-05T00:38:48.397Z,92.91
2023-03-05T00:41:14.980Z,93.00
2023-03-05T00:43:41.429Z,92.93
2023-03-05T00:46:08.134Z,92.81
2023-03-05T00:48:34.743Z,92.99
2023-03-05T00:51:01.254Z,93.27
2023-03-05T00:53:27.728Z,93.02
2023-03-05T00:55:54.272Z,93.47
2023-03-05T00:58:20.736Z,93.24
2023-03-05T01:00:50.445Z,93.42
2023-03-05T01:03:18.099Z,93.67
2023-03-05T01:05:44.926Z,93.42
2023-03-05T01:08:11.656Z,93.53
2023-03-05T01:10:38.113Z,94.02
2023-03-05T01:13:04.549Z,94.26
2023-03-05T01:15:30.939Z,94.33
2023-03-05T01:17:57.373Z,94.31
2023-03-05T01:20:23.995Z,94.68
2023-03-05T01:22:50.427Z,94.75
2023-03-05T01:25:17.742Z,95.19
2023-03-05T01:27:44.407Z,95.30
2023-03-05T01:30:13.299Z,95.95
2023-03-05T01:32:40.290Z,95.51
2023-03-05T01:35:07.281Z,95.81
2023-03-05T01:37:33.782Z,95.58
2023-03-05T01:40:00.188Z,96.04
2023-03-05T01:42:26.645Z,96.04
2023-03-05T01:45:02.813Z,96.04
2023-03-05T01:47:29.628Z,96.01
2023-03-05T01:49:56.813Z,96.08
2023-03-05T01:52:26.664Z,95.91
2023-03-05T01:55:08.056Z,96.20
2023-03-05T01:57:46.041Z,96.02
2023-03-05T02:00:22.434Z,96.24
2023-03-05T02:02:50.490Z,96.02
2023-03-05T02:05:26.996Z,96.15
2023-03-05T02:07:55.587Z,96.32
2023-03-05T02:10:25.754Z,96.34
2023-03-05T02:12:54.545Z,96.16
2023-03-05T02:15:21.110Z,96.33
2023-03-05T02:17:47.798Z,96.08
2023-03-05T02:20:19.757Z,95.75
2023-03-05T02:22:46.551Z,95.76
2023-03-05T02:25:25.240Z,95.76
2023-03-05T02:27:56.986Z,95.68
2023-03-05T02:30:23.796Z,95.86
2023-03-05T02:32:50.578Z,95.61
2023-03-05T02:35:17.181Z,95.55
2023-03-05T02:37:43.887Z,95.75
2023-03-05T02:40:11.952Z,95.98
2023-03-05T02:42:38.369Z,95.87
2023-03-05T02:45:05.415Z,95.91
2023-03-05T02:47:32.053Z,95.96
2023-03-05T02:49:59.029Z,96.19
2023-03-05T02:52:25.696Z,96.05
2023-03-05T02:54:52.931Z,96.38
2023-03-05T02:57:19.696Z,96.35
2023-03-05T02:59:47.266Z,96.35
2023-03-05T03:02:14.322Z,96.46
2023-03-05T03:04:40.825Z,96.07
2023-03-05T03:07:07.255Z,96.15
2023-03-05T03:09:35.933Z,96.29
2023-03-05T03:12:03.339Z,96.27
2023-03-05T03:14:39.424Z,96.80
2023-03-05T03:17:10.945Z,96.95
2023-03-05T03:19:38.097Z,97.41
2023-03-05T03:22:04.845Z,97.94
2023-03-05T03:24:32.710Z,97.84
2023-03-05T03:26:59.196Z,98.28
2023-03-05T03:29:25.649Z,98.15
2023-03-05T03:31:52.636Z,98.48
2023-03-05T03:34:19.827Z,98.47
2023-03-05T03:36:48.963Z,98.63
2023-03-05T03:39:15.748Z,98.67
2023-03-05T03:41:48.041Z,98.93
2023-03-05T03:44:17.914Z,98.97
2023-03-05T03:46:46.295Z,99.27
2023-03-05T03:49:20.832Z,99.10
2023-03-05T03:51:48.054Z,99.39
2023-03-05T03:54:16.490Z,99.25
2023-03-05T03:56:43.236Z,99.44
2023-03-05T03:59:10.529Z,99.69
2023-03-05T04:01:37.267Z,99.69
2023-03-05T04:04:05.076Z,99.60
2023-03-05T04:06:32.673Z,99.67
2023-03-05T04:08:59.288Z,99.83
2023-03-05T04:11:26.080Z,99.68
2023-03-05T04:13:52.573Z,99.83
2023-03-05T04:16:19.397Z,100.00
2023-03-05T04:18:46.100Z,100.00
2023-03-05T04:21:12.796Z,100.00
2023-03-05T04:23:39.964Z,100.00
2023-03-05T04:26:06.771Z,100.00
2023-03-05T04:28:33.394Z,100.00
2023-03-05T04:31:00.038Z,100.00
2023-03-05T04:33:26.503Z,100.00
2023-03-05T04:35:53.127Z,100.00
2023-03-05T04:38:19.640Z,100.00
2023-03-05T04:40:46.599Z,100.00
2023-03-05T04:43:13.041Z,100.00
2023-03-05T04:45:40.749Z,100.00
2023-03-05T04:48:08.203Z,100.00
2023-03-05T04:50:34.923Z,100.00
2023-03-05T04:53:01.690Z,100.00
2023-03-05T04:55:28.221Z,100.00
2023-03-05T04:57:54.633Z,100.00
2023-03-05T05:00:21.708Z,100.00
2023-03-05T05:02:50.129Z,100.00
2023-03-05T05:05:21.595Z,100.00
2023-03-05T05:07:48.105Z,100.00
2023-03-05T05:10:15.164Z,100.00
2023-03-05T05:12:42.046Z,100.00
2023-03-05T05:15:09.199Z,100.00
2023-03-05T05:17:36.198Z,100.00
2023-03-05T05:20:06.619Z,100.00
2023-03-05T05:22:34.034Z,100.00
2023-03-05T05:25:00.849Z,100.00
2023-03-05T05:27:27.342Z,100.00
2023-03-05T05:29:53.941Z,100.00
2023-03-05T05:32:22.448Z,100.00
2023-03-05T05:34:49.577Z,100.00
2023-03-05T05:37:16.117Z,100.00
2023-03-05T05:39:42.558Z,100.00
2023-03-05T05:42:09.108Z,100.00
2023-03-05T05:44:35.545Z,100.00
2023-03-05T05:47:02.069Z,100.00
2023-03-05T05:49:28.631Z,100.00
2023-03-05T05:51:55.073Z,100.00
2023-03-05T05:54:21.509Z,100.00
2023-03-05T05:56:47.941Z,100.00
2023-03-05T05:59:14.403Z,100.00
2023-03-05T06:01:40.916Z,100.00
2023-03-05T06:04:07.455Z,100.00
2023-03-05T06:06:35.012Z,100.00
2023-03-05T06:09:02.121Z,100.00
2023-03-05T06:11:29.020Z,100.00
2023-03-05T06:13:55.530Z,100.00
2023-03-05T06:16:24.084Z,100.00
2023-03-05T06:18:51.669Z,100.00
2023-03-05T06:21:20.107Z,100.00
2023-03-05T06:23:47.686Z,100.00
2023-03-05T06:26:17.505Z,100.00
2023-03-05T06:28:44.357Z,100.00
2023-03-05T06:31:13.633Z,100.00
2023-03-05T06:33:41.123Z,100.00
2023-03-05T06:36:10.090Z,100.00
2023-03-05T06:38:36.901Z,100.00
2023-03-05T06:41:09.348Z,100.00
2023-03-05T06:43:41.500Z,100.00
2023-03-05T06:46:12.127Z,100.00
2023-03-05T06:48:39.310Z,100.00
2023-03-05T06:51:12.213Z,100.00
2023-03-05T06:53:38.666Z,100.00
2023-03-05T06:56:05.669Z,100.00
2023-03-05T06:58:32.112Z,100.00
2023-03-05T07:00:58.571Z,100.00
2023-03-05T07:03:25.050Z,100.00
2023-03-05T07:05:51.551Z,100.00
2023-03-05T07:08:17.985Z,100.00
2023-03-05T07:10:44.590Z,100.00
2023-03-05T07:13:11.138Z,100.00
2023-03-05T07:15:39.836Z,100.00
2023-03-05T07:18:07.040Z,100.00
2023-03-05T07:20:37.052Z,100.00
2023-03-05T07:23:04.245Z,100.00
2023-03-05T07:25:32.141Z,100.00
2023-03-05T07:27:58.738Z,100.00
2023-03-05T07:30:25.245Z,100.00
2023-03-05T07:32:51.694Z,100.00
2023-03-05T07:35:18.334Z,100.00
2023-03-05T07:37:44.860Z,100.00
2023-03-05T07:40:11.752Z,100.00
2023-03-05T07:42:38.271Z,100.00
2023-03-05T07:45:05.227Z,100.00
2023-03-05T07:47:31.718Z,100.00
2023-03-05T07:49:58.360Z,100.00
2023-03-05T07:52:24.908Z,100.00
2023-03-05T07:54:52.474Z,100.00
2023-03-05T07:57:18.907Z,100.00
2023-03-05T07:59:45.398Z,100.00
2023-03-05T08:02:13.516Z,100.00
2023-03-05T08:04:42.172Z,100.00
2023-03-05T08:07:08.789Z,100.00
2023-03-05T08:09:35.190Z,100.00
2023-03-05T08:12:01.688Z,100.00
2023-03-05T08:14:28.219Z,100.00
2023-03-05T08:16:54.742Z,100.00
2023-03-05T08:19:21.374Z,100.00
2023-03-05T08:21:47.890Z,100.00
2023-03-05T08:24:14.766Z,100.00
2023-03-05T08:26:41.540Z,99.68
2023-03-05T08:29:09.833Z,99.33
2023-03-05T08:31:37.065Z,99.17
2023-03-05T08:34:04.925Z,99.24
2023-03-05T08:36:32.284Z,98.34
2023-03-05T08:38:59.670Z,96.88
2023-03-05T08:41:26.209Z,96.62
2023-03-05T08:43:52.675Z,96.54
2023-03-05T08:46:19.989Z,95.33
2023-03-05T08:48:46.486Z,94.37
2023-03-05T08:51:15.658Z,94.98
2023-03-05T08:53:42.634Z,95.22
2023-03-05T08:56:09.597Z,95.06
2023-03-05T08:58:36.391Z,95.41
2023-03-05T09:01:03.218Z,95.17
2023-03-05T09:03:29.690Z,94.49
2023-03-05T09:06:04.602Z,94.01
2023-03-05T09:08:31.071Z,93.76
2023-03-05T09:10:57.825Z,93.71
2023-03-05T09:13:24.671Z,93.25
2023-03-05T09:15:55.991Z,93.11
2023-03-05T09:18:22.642Z,92.93
2023-03-05T09:20:49.119Z,92.31
2023-03-05T09:23:15.547Z,92.16
2023-03-05T09:25:42.014Z,91.52
2023-03-05T09:28:09.268Z,91.20
2023-03-05T09:30:36.216Z,91.44
2023-03-05T09:33:03.911Z,90.57
2023-03-05T09:35:30.711Z,89.71
2023-03-05T09:37:57.205Z,89.21
2023-03-05T09:40:25.917Z,88.95
2023-03-05T09:43:05.818Z,88.66
2023-03-05T09:46:05.818Z,88.01
2023-03-05T09:48:52.549Z,87.30
2023-03-05T09:51:25.682Z,87.69
2023-03-05T09:54:03.227Z,88.78
2023-03-05T09:56:34.815Z,88.47
2023-03-05T09:59:14.664Z,87.97
2023-03-05T10:01:44.640Z,88.32
2023-03-05T10:04:16.197Z,88.36
2023-03-05T10:06:48.687Z,87.47
2023-03-05T10:09:46.231Z,87.24
2023-03-05T10:12:27.846Z,86.72
2023-03-05T10:14:55.494Z,86.29
2023-03-05T10:17:43.725Z,84.86
2023-03-05T10:20:25.923Z,84.34
2023-03-05T10:22:58.611Z,84.43
2023-03-05T10:25:53.178Z,83.79
2023-03-05T10:28:28.053Z,83.32
2023-03-05T10:31:21.893Z,81.92
2023-03-05T10:33:54.394Z,81.03
2023-03-05T10:36:46.865Z,80.95
2023-03-05T10:39:39.948Z,80.06
2023-03-05T10:42:21.640Z,78.98
2023-03-05T10:44:53.054Z,78.17
2023-03-05T10:47:22.418Z,78.50
2023-03-05T10:49:52.321Z,76.65
2023-03-05T10:52:40.522Z,77.11
2023-03-05T10:55:19.286Z,77.38
2023-03-05T10:57:45.788Z,76.81
2023-03-05T11:00:24.983Z,75.83
2023-03-05T11:03:10.168Z,75.57
2023-03-05T11:05:50.445Z,74.89
2023-03-05T11:08:19.720Z,74.38
2023-03-05T11:10:46.156Z,74.64
2023-03-05T11:13:27.368Z,73.97
2023-03-05T11:16:02.302Z,74.04
2023-03-05T11:18:34.252Z,73.41
2023-03-05T11:21:18.536Z,73.43
2023-03-05T11:24:03.058Z,72.57
2023-03-05T11:26:29.496Z,72.37
2023-03-05T11:29:01.005Z,71.61
2023-03-05T11:31:30.302Z,71.09
2023-03-05T11:34:00.378Z,70.18
2023-03-05T11:36:37.143Z,70.29
2023-03-05T11:39:07.361Z,69.96
2023-03-05T11:43:17.087Z,70.38
2023-03-05T11:45:45.283Z,69.52
2023-03-05T11:48:20.848Z,69.26
2023-03-05T11:50:55.415Z,68.67
2023-03-05T11:53:25.338Z,68.26
2023-03-05T11:55:54.840Z,67.28
2023-03-05T11:58:33.010Z,67.20
2023-03-05T12:01:03.386Z,66.00
2023-03-05T12:03:36.451Z,65.47
2023-03-05T12:06:16.416Z,65.55
2023-03-05T12:08:48.169Z,65.41
2023-03-05T12:11:26.400Z,64.60
2023-03-05T12:14:04.787Z,62.98
2023-03-05T12:16:41.539Z,63.21
2023-03-05T12:19:37.425Z,63.15
2023-03-05T12:22:05.431Z,63.63
2023-03-05T12:24:31.787Z,64.26
2023-03-05T12:27:04.368Z,63.21
2023-03-05T12:29:54.345Z,63.84
2023-03-05T12:32:31.407Z,63.03
2023-03-05T12:35:05.677Z,63.47
2023-03-05T12:37:32.016Z,63.72
2023-03-05T12:40:22.902Z,63.45
2023-03-05T12:42:56.756Z,63.84
2023-03-05T12:45:29.631Z,63.25
2023-03-05T12:47:55.984Z,63.27
2023-03-05T12:50:28.456Z,63.24
2023-03-05T12:53:04.549Z,63.00
2023-03-05T12:55:36.130Z,63.49
2023-03-05T12:58:14.944Z,62.44
2023-03-05T13:00:46.344Z,62.94
2023-03-05T13:03:22.449Z,63.33
2023-03-05T13:05:52.619Z,64.38
2023-03-05T13:08:26.582Z,64.86
2023-03-05T13:10:56.919Z,63.63
2023-03-05T13:13:26.491Z,63.24
2023-03-05T13:15:53.373Z,62.91
2023-03-05T13:18:31.383Z,63.29
2023-03-05T13:21:06.841Z,63.43
2023-03-05T13:23:35.067Z,63.11
2023-03-05T13:26:18.663Z,61.94
2023-03-05T13:29:05.344Z,61.65
2023-03-05T13:31:33.766Z,61.50
2023-03-05T13:34:10.877Z,62.10
2023-03-05T13:36:38.480Z,62.95
2023-03-05T13:39:06.688Z,62.49
2023-03-05T13:41:33.442Z,62.70
2023-03-05T13:44:02.410Z,62.06
2023-03-05T13:46:39.093Z,62.54
2023-03-05T13:49:29.969Z,62.69
2023-03-05T13:51:57.866Z,63.28
2023-03-05T13:54:26.155Z,62.64
2023-03-05T13:57:08.463Z,62.60
2023-03-05T13:59:39.080Z,63.14
2023-03-05T14:02:33.483Z,63.44
2023-03-05T14:05:00.440Z,63.87
2023-03-05T14:07:39.701Z,64.24
2023-03-05T14:10:30.856Z,64.07
2023-03-05T14:12:58.698Z,64.11
2023-03-05T14:15:33.863Z,64.57
2023-03-05T14:18:18.410Z,64.73
2023-03-05T14:21:03.061Z,64.91
2023-03-05T14:23:32.603Z,65.49
2023-03-05T14:26:22.943Z,65.24
2023-03-05T14:29:15.386Z,65.72
2023-03-05T14:31:51.746Z,66.73
2023-03-05T14:34:40.002Z,67.09
2023-03-05T14:37:20.363Z,67.47
2023-03-05T14:40:05.357Z,67.43
2023-03-05T14:42:33.257Z,67.79
2023-03-05T14:45:21.388Z,68.36
2023-03-05T14:47:49.592Z,69.43
2023-03-05T14:50:18.576Z,69.85
2023-03-05T14:52:47.055Z,70.27
2023-03-05T14:55:18.211Z,70.95
2023-03-05T14:57:45.471Z,71.28
2023-03-05T15:00:17.381Z,71.99
2023-03-05T15:02:44.129Z,72.33
2023-03-05T15:05:10.615Z,73.00
2023-03-05T15:07:37.846Z,73.68
2023-03-05T15:10:05.036Z,74.31
2023-03-05T15:12:31.682Z,74.56
2023-03-05T15:14:58.106Z,74.77
2023-03-05T15:17:36.748Z,74.74
2023-03-05T15:20:10.294Z,75.40
2023-03-05T15:22:37.372Z,75.44
2023-03-05T15:25:05.453Z,75.24
2023-03-05T15:27:32.014Z,75.12
2023-03-05T15:29:59.586Z,75.07
2023-03-05T15:32:28.004Z,75.21
2023-03-05T15:34:55.502Z,74.95
2023-03-05T15:37:22.882Z,74.85
2023-03-05T15:39:49.609Z,73.94
2023-03-05T15:42:16.056Z,73.77
2023-03-05T15:44:42.481Z,73.57
2023-03-05T15:47:09.139Z,73.52
2023-03-05T15:49:35.589Z,74.04
2023-03-05T15:52:02.520Z,74.36
2023-03-05T15:54:28.995Z,74.74
2023-03-05T15:56:55.497Z,74.77
2023-03-05T15:59:22.029Z,74.44
2023-03-05T16:01:51.427Z,74.44
2023-03-05T16:04:18.682Z,74.33
2023-03-05T16:06:47.220Z,74.46
2023-03-05T16:09:15.349Z,74.52
2023-03-05T16:11:47.864Z,74.56
2023-03-05T16:14:17.287Z,75.04
2023-03-05T16:16:43.868Z,75.10
2023-03-05T16:19:13.119Z,75.86
2023-03-05T16:21:40.026Z,75.71
2023-03-05T16:24:06.599Z,75.95
2023-03-05T16:26:35.982Z,75.93
2023-03-05T16:29:02.506Z,76.54
2023-03-05T16:31:30.419Z,76.09
2023-03-05T16:33:56.879Z,76.07
2023-03-05T16:36:26.282Z,76.69
2023-03-05T16:38:54.715Z,76.55
2023-03-05T16:41:24.329Z,76.67
2023-03-05T16:43:56.343Z,76.56
2023-03-05T16:46:24.821Z,76.47
2023-03-05T16:48:51.913Z,76.73
2023-03-05T16:51:22.009Z,76.94
2023-03-05T16:53:51.921Z,76.93
2023-03-05T16:56:18.969Z,76.57
2023-03-05T16:58:45.699Z,76.36
2023-03-05T17:01:19.258Z,76.20
2023-03-05T17:03:50.921Z,76.07
2023-03-05T17:06:23.415Z,76.38
2023-03-05T17:08:52.813Z,75.76
2023-03-05T17:11:19.945Z,75.81
2023-03-05T17:13:49.081Z,76.03
2023-03-05T17:16:17.915Z,75.54
2023-03-05T17:18:44.728Z,75.56
2023-03-05T17:21:12.982Z,75.12
2023-03-05T17:23:40.084Z,75.64
2023-03-05T17:26:08.497Z,75.31
2023-03-05T17:28:35.328Z,75.63
2023-03-05T17:31:04.483Z,75.60
2023-03-05T17:33:38.493Z,75.75
2023-03-05T17:36:06.281Z,75.22
2023-03-05T17:38:32.711Z,75.56
2023-03-05T17:40:59.120Z,74.92
2023-03-05T17:43:25.568Z,74.74
2023-03-05T17:45:52.996Z,74.61
2023-03-05T17:48:19.551Z,74.94
2023-03-05T17:50:46.485Z,75.02
2023-03-05T17:53:13.033Z,75.05
2023-03-05T17:55:43.207Z,75.60
2023-03-05T17:58:09.886Z,75.52
2023-03-05T18:00:36.879Z,75.56
2023-03-05T18:03:03.854Z,75.32
2023-03-05T18:05:30.788Z,75.76
2023-03-05T18:07:57.322Z,76.04
2023-03-05T18:10:25.543Z,76.35
2023-03-05T18:12:53.583Z,76.96
2023-03-05T18:15:21.408Z,76.80
2023-03-05T18:17:48.258Z,77.22
2023-03-05T18:20:28.386Z,77.90
2023-03-05T18:22:55.595Z,78.11
2023-03-05T18:25:25.670Z,78.70
2023-03-05T18:27:53.354Z,78.71
2023-03-05T18:30:19.960Z,79.30
2023-03-05T18:32:47.513Z,79.19
2023-03-05T18:35:16.794Z,79.52
2023-03-05T18:37:43.479Z,79.74
2023-03-05T18:40:14.721Z,80.29
2023-03-05T18:42:41.302Z,80.23
2023-03-05T18:45:10.365Z,80.86
2023-03-05T18:47:38.969Z,80.96
2023-03-05T18:50:06.945Z,81.15
2023-03-05T18:52:33.478Z,81.35
2023-03-05T18:54:59.981Z,81.85
2023-03-05T18:57:26.607Z,82.23
2023-03-05T18:59:53.058Z,82.27
2023-03-05T19:02:19.491Z,82.32
2023-03-05T19:04:46.018Z,82.36
2023-03-05T19:07:12.513Z,82.64
2023-03-05T19:10:03.531Z,82.78
2023-03-05T19:12:35.279Z,82.53
2023-03-05T19:15:02.612Z,82.37
2023-03-05T19:17:32.272Z,82.57
2023-03-05T19:19:59.703Z,82.52
2023-03-05T19:22:28.456Z,83.19
2023-03-05T19:24:55.513Z,82.79
2023-03-05T19:27:21.964Z,83.17
2023-03-05T19:29:48.753Z,83.11
2023-03-05T19:32:17.711Z,83.29
2023-03-05T19:34:47.701Z,83.13
2023-03-05T19:37:14.479Z,83.07
2023-03-05T19:39:41.801Z,82.98
2023-03-05T19:42:08.508Z,82.67
2023-03-05T19:44:35.067Z,82.91
2023-03-05T19:47:02.104Z,82.93
2023-03-05T19:49:28.850Z,83.06
2023-03-05T19:51:55.622Z,83.30
2023-03-05T19:54:23.638Z,83.17
2023-03-05T19:56:52.871Z,83.21
2023-03-05T19:59:21.173Z,83.21
2023-03-05T20:01:48.813Z,83.04
2023-03-05T20:04:20.653Z,82.98
2023-03-05T20:06:47.776Z,83.26
2023-03-05T20:09:15.257Z,83.82
2023-03-05T20:11:42.067Z,83.79
2023-03-05T20:14:09.260Z,84.13
2023-03-05T20:16:37.774Z,84.28
2023-03-05T20:19:06.216Z,84.15
2023-03-05T20:21:39.621Z,84.48
2023-03-05T20:24:12.982Z,84.82
2023-03-05T20:26:40.502Z,85.48
2023-03-05T20:29:07.925Z,85.54
2023-03-05T20:31:36.889Z,85.66
2023-03-05T20:34:06.177Z,86.26
2023-03-05T20:36:34.579Z,86.40
2023-03-05T20:39:05.177Z,86.55
2023-03-05T20:41:33.021Z,86.64
2023-03-05T20:43:59.465Z,86.95
2023-03-05T20:46:28.496Z,87.08
2023-03-05T20:49:01.200Z,87.42
2023-03-05T20:51:37.773Z,87.36
2023-03-05T20:54:11.264Z,87.77
2023-03-05T20:56:37.873Z,87.50
2023-03-05T20:59:08.474Z,87.78
2023-03-05T21:01:37.505Z,87.79
2023-03-05T21:04:04.464Z,87.95
2023-03-05T21:06:32.324Z,87.64
2023-03-05T21:08:59.198Z,87.48
2023-03-05T21:11:26.234Z,87.69
2023-03-05T21:13:52.660Z,87.88
2023-03-05T21:16:22.641Z,87.97
2023-03-05T21:18:51.005Z,88.24
2023-03-05T21:21:17.712Z,88.33
2023-03-05T21:23:44.209Z,88.58
2023-03-05T21:26:10.664Z,88.52
2023-03-05T21:28:39.272Z,88.76
2023-03-05T21:31:09.243Z,88.70
2023-03-05T21:33:35.698Z,88.92
2023-03-05T21:36:02.118Z,89.10
2023-03-05T21:38:30.489Z,89.55
2023-03-05T21:40:58.545Z,89.56
2023-03-05T21:43:26.835Z,89.51
2023-03-05T21:45:54.755Z,89.45
2023-03-05T21:48:22.097Z,89.59
2023-03-05T21:50:48.915Z,89.63
2023-03-05T21:53:18.839Z,89.72
2023-03-05T21:56:07.458Z,89.93
2023-03-05T21:58:34.801Z,89.77
2023-03-05T22:01:02.130Z,89.95
2023-03-05T22:03:29.351Z,90.12
2023-03-05T22:05:56.391Z,90.12
2023-03-05T22:08:23.595Z,90.06
2023-03-05T22:10:50.385Z,90.15
2023-03-05T22:13:17.871Z,90.27
2023-03-05T22:15:55.246Z,90.41
2023-03-05T22:18:25.172Z,90.47
2023-03-05T22:20:52.597Z,90.70
2023-03-05T22:23:22.260Z,90.95
2023-03-05T22:26:03.718Z,91.04
2023-03-05T22:28:30.810Z,91.20
2023-03-05T22:30:57.471Z,91.36
2023-03-05T22:33:24.378Z,91.64
2023-03-05T22:35:50.978Z,91.58
2023-03-05T22:38:17.805Z,91.89
2023-03-05T22:40:46.390Z,92.00
2023-03-05T22:43:13.616Z,91.96
2023-03-05T22:45:40.298Z,91.96
2023-03-05T22:48:07.481Z,92.11
2023-03-05T22:50:34.006Z,92.33
2023-03-05T22:53:00.578Z,92.23
2023-03-05T22:55:27.097Z,92.55
2023-03-05T22:57:53.527Z,92.77
2023-03-05T23:00:23.698Z,92.74
2023-03-05T23:02:51.450Z,93.05
2023-03-05T23:05:18.723Z,92.94
2023-03-05T23:07:45.719Z,92.95
2023-03-05T23:10:16.908Z,93.10
2023-03-05T23:12:49.066Z,93.46
2023-03-05T23:15:22.620Z,93.37
2023-03-05T23:17:49.072Z,93.38
2023-03-05T23:20:20.257Z,93.54
2023-03-05T23:22:47.279Z,93.87
2023-03-05T23:25:14.677Z,93.69
2023-03-05T23:27:41.927Z,93.58
2023-03-05T23:30:29.050Z,94.07
2023-03-05T23:32:56.555Z,93.73
2023-03-05T23:35:35.684Z,93.85
2023-03-05T23:38:05.178Z,94.01
2023-03-05T23:40:35.718Z,94.38
2023-03-05T23:43:03.238Z,94.66
2023-03-05T23:45:30.226Z,94.72
2023-03-05T23:47:57.332Z,95.34
2023-03-05T23:50:29.792Z,95.48
2023-03-05T23:52:56.944Z,95.58
2023-03-05T23:55:33.674Z,95.68
2023-03-05T23:58:00.619Z,95.75
